Latest Weather Observations for Griffith

IDN60801

Issued at 8:32 pm EST Tuesday 27 June 2017 (issued every 30 minutes, with the page automatically refreshed every 10 minutes)

About weather observations | Map of weather stations | Latest weather observations for NSW | Other Formats
Station Details ID: 075041 Name: GRIFFITH AIRPORT AWS Lat: -34.25 Lon: 146.07 Height: 134.0 m
Data from the previous 72 hours. | See also: Recent months at Griffith
Date/Time
EST
Temp
°C
App
Temp
°C
Dew
Point
°C
Rel
Hum
%
Delta-T
°C
Wind Press
QNH
hPa
Press
MSL
hPa
Rain since
9am
mm
Dir  Spd
km/h
Gust
km/h
Spd
kts
Gust
kts
27/08:30pm 9.0 5.6 5.7 80 1.5 ESE 13 15 7 8 1024.4 1024.6 0.0
27/08:00pm 9.0 5.5 5.4 78 1.6 SE 13 15 7 8 1024.4 1024.6 0.0
27/07:30pm 8.7 5.7 6.0 83 1.2 SE 11 13 6 7 1024.3 1024.5 0.0
27/07:00pm 8.9 5.9 6.0 82 1.3 ESE 11 13 6 7 1024.0 1024.1 0.0
27/06:30pm 8.7 6.1 6.0 83 1.2 ESE 9 11 5 6 1024.2 1024.3 0.0
27/06:00pm 8.8 6.2 5.9 82 1.3 ESE 9 9 5 5 1024.1 1024.2 0.0
27/05:30pm 9.3 7.0 5.9 79 1.6 ESE 7 9 4 5 1024.2 1024.3 0.0
27/05:00pm 10.5 9.6 6.1 74 2.0 CALM 0 6 0 3 1024.2 1024.3 0.0
27/04:30pm 11.0 10.1 6.0 71 2.3 CALM 0 0 0 0 1024.1 1024.2 0.0
27/04:00pm 11.1 9.0 6.0 71 2.4 SSE 6 7 3 4 1024.0 1024.1 0.0
27/03:30pm 11.3 9.1 6.0 70 2.5 SSE 7 9 4 5 1023.8 1023.9 0.0
27/03:00pm 11.5 10.2 6.0 69 2.6 SW 2 9 1 5 1023.8 1023.9 0.0
27/02:30pm 11.4 10.5 6.1 70 2.5 CALM 0 6 0 3 1023.9 1024.0 0.0
27/02:00pm 11.2 7.9 6.3 72 2.3 SSE 13 19 7 10 1023.4 1023.6 0.0
27/01:30pm 10.9 8.4 6.5 74 2.1 S 9 11 5 6 1024.2 1024.3 0.0
27/01:00pm 10.5 9.2 6.1 74 2.0 SSW 2 7 1 4 1024.7 1024.9 0.0
27/12:30pm 10.4 8.8 6.4 76 1.9 S 4 7 2 4 1025.1 1025.3 0.0
27/12:00pm 9.9 7.9 6.4 79 1.6 ESE 6 7 3 4 1025.5 1025.7 0.0
27/11:30am 10.0 7.6 6.9 81 1.5 ESE 9 11 5 6 1025.6 1025.8 0.0
27/11:00am 8.9 7.1 7.0 88 0.9 ESE 6 7 3 4 1026.2 1026.4 0.0
27/10:30am 7.6 5.2 6.9 95 0.3 ESE 9 13 5 7 1026.4 1026.6 0.0
27/10:00am 6.5 3.6 6.4 99 0.0 ESE 11 17 6 9 1026.1 1026.3 0.0
27/09:30am 6.0 3.0 5.9 99 0.0 ESE 11 11 6 6 1026.3 1026.5 0.0
27/09:00am 4.9 1.3 4.8 99 0.0 ESE 13 17 7 9 1026.0 1026.2 0.0
27/08:30am 4.3 1.9 4.2 99 0.0 E 6 9 3 5 1025.7 1025.9 0.0
27/08:00am 4.0 1.0 3.9 99 0.0 ESE 9 11 5 6 1025.6 1025.8 0.0
27/07:30am 3.7 0.6 3.6 99 0.0 E 9 11 5 6 1025.6 1025.8 0.0
27/07:00am 4.0 1.5 3.9 99 0.0 E 6 7 3 4 1025.7 1025.9 0.0
27/06:30am 3.4 0.2 3.3 99 0.0 ENE 9 11 5 6 1025.5 1025.7 0.0
27/06:00am 2.7 0.4 2.6 99 0.0 E 4 7 2 4 1025.3 1025.5 0.0
27/05:30am 2.9 0.0 2.8 99 0.0 ENE 7 11 4 6 1025.1 1025.3 0.0
27/05:00am 3.8 0.7 3.7 99 0.0 E 9 13 5 7 1025.1 1025.3 0.0
27/04:30am 4.5 2.1 4.5 100 0.0 ENE 6 7 3 4 1025.6 1025.8 0.0
27/04:00am 4.4 2.0 4.3 99 0.0 ENE 6 7 3 4 1025.5 1025.7 0.0
27/03:35am 2.9 -0.3 2.8 99 0.0 E 9 11 5 6 1025.6 1025.8 0.0
27/03:30am 3.1 0.8 3.0 99 0.0 ESE 4 9 2 5 1025.6 1025.8 0.0
27/03:04am 2.0 0.3 1.9 99 0.0 CALM 0 0 0 0 1025.6 1025.8 0.0
27/03:00am 1.7 -0.4 1.6 99 0.0 ESE 2 6 1 3 1025.6 1025.8 0.0
27/02:56am 1.8 -0.3 1.7 99 0.0 ESE 2 6 1 3 1025.7 1025.9 0.0
27/02:36am 1.8 -0.7 1.7 99 0.0 ESE 4 6 2 3 1025.7 1025.9 0.0
27/02:30am 2.9 0.6 2.8 99 0.0 ESE 4 6 2 3 1025.7 1025.9 0.0
27/02:00am 2.7 -0.6 2.6 99 0.0 ESE 9 13 5 7 1025.7 1025.9 0.0
27/01:30am 3.6 -0.7 3.5 99 0.0 E 15 15 8 8 1025.4 1025.6 0.0
27/01:00am 3.1 -0.5 3.0 99 0.0 ESE 11 13 6 7 1025.4 1025.6 0.0
27/12:30am 4.4 2.8 4.3 99 0.0 S 2 6 1 3 1025.6 1025.8 0.0
27/12:00am 4.5 3.3 4.4 99 0.0 CALM 0 4 0 2 1025.8 1026.0 0.0
 
Date/Time
EST
Temp
°C
App
Temp
°C
Dew
Point
°C
Rel
Hum
%
Delta-T
°C
Wind Press
QNH
hPa
Press
MSL
hPa
Rain since
9am
mm
Dir  Spd
km/h
Gust
km/h
Spd
kts
Gust
kts
26/11:30pm 3.2 1.3 3.1 99 0.0 SW 2 7 1 4 1026.4 1026.6 0.0
26/11:00pm 3.7 2.3 3.6 99 0.0 CALM 0 6 0 3 1026.6 1026.8 0.0
26/10:30pm 5.1 4.0 5.0 99 0.0 CALM 0 0 0 0 1026.1 1026.3 0.0
26/10:00pm 4.5 3.2 4.1 97 0.2 CALM 0 6 0 3 1025.8 1026.0 0.0
26/09:30pm 4.4 2.9 3.2 92 0.5 CALM 0 0 0 0 1025.5 1025.7 0.0
26/09:00pm 4.3 2.1 1.3 81 1.2 SSW 2 9 1 5 1025.4 1025.6 0.0
26/08:30pm 8.5 5.8 7.3 92 0.6 SSE 11 13 6 7 1025.1 1025.3 0.0
26/08:00pm 6.0 4.8 4.5 90 0.6 CALM 0 0 0 0 1025.3 1025.5 0.0
26/07:30pm 6.2 4.9 3.9 85 1.0 CALM 0 0 0 0 1025.3 1025.5 0.0
26/07:00pm 7.6 6.3 4.0 78 1.6 CALM 0 0 0 0 1024.9 1025.1 0.0
26/06:30pm 7.7 5.2 3.6 75 1.8 SSW 6 7 3 4 1024.8 1025.0 0.0
26/06:00pm 10.9 8.4 4.8 66 2.8 SW 7 9 4 5 1024.5 1024.7 0.0
26/05:30pm 12.5 9.0 5.4 62 3.3 WSW 13 17 7 9 1024.5 1024.7 0.0
26/05:00pm 14.3 10.9 5.7 56 4.1 WSW 13 17 7 9 1024.4 1024.6 0.0
26/04:30pm 15.1 11.3 5.6 53 4.6 SW 15 19 8 10 1024.1 1024.2 0.0
26/04:00pm 15.7 12.5 5.3 50 5.0 W 11 17 6 9 1023.9 1024.0 0.0
26/03:30pm 15.3 12.6 5.8 53 4.6 W 9 15 5 8 1023.8 1023.9 0.0
26/03:00pm 15.5 12.9 6.0 53 4.6 W 9 15 5 8 1023.4 1023.6 0.0
26/02:30pm 14.2 10.8 5.8 57 4.0 SW 13 17 7 9 1023.4 1023.6 0.0
26/02:00pm 15.5 11.5 6.8 56 4.3 WSW 17 22 9 12 1023.6 1023.7 0.0
26/01:30pm 15.0 11.2 5.8 54 4.4 SW 15 24 8 13 1023.9 1024.0 0.0
26/01:00pm 14.6 11.6 6.2 57 4.0 W 11 20 6 11 1024.0 1024.1 0.0
26/12:30pm 14.2 11.4 6.8 61 3.6 WNW 11 19 6 10 1024.3 1024.5 0.0
26/12:00pm 13.6 11.1 6.7 63 3.3 NW 9 13 5 7 1024.6 1024.8 0.0
26/11:30am 12.9 11.2 7.4 69 2.7 WSW 6 9 3 5 1024.9 1025.1 0.0
26/11:00am 11.2 9.8 7.3 77 1.9 WSW 4 7 2 4 1025.1 1025.3 0.0
26/10:30am 10.0 9.9 9.4 96 0.3 CALM 0 6 0 3 1025.2 1025.4 0.0
26/10:04am 7.7 6.0 7.7 100 0.0 NW 6 9 3 5 1025.1 1025.3 0.0
26/10:00am 7.4 5.7 7.4 100 0.0 NW 6 9 3 5 1025.1 1025.3 0.0
26/09:58am 7.3 5.5 7.3 100 0.0 NNW 6 7 3 4 1025.1 1025.3 0.0
26/09:30am 5.5 4.5 5.5 100 0.0 CALM 0 0 0 0 1024.9 1025.1 0.0
26/09:00am 3.3 1.9 3.3 100 0.0 CALM 0 0 0 0 1024.6 1024.8 0.0
26/08:30am 2.6 1.0 2.5 99 0.0 CALM 0 0 0 0 1024.2 1024.3 0.0
26/08:00am 1.8 0.1 1.7 99 0.0 CALM 0 0 0 0 1023.8 1023.9 0.0
26/07:30am 0.7 -1.2 0.6 99 0.0 CALM 0 0 0 0 1023.3 1023.5 0.0
26/07:00am 0.8 -1.1 0.7 99 0.0 CALM 0 0 0 0 1022.9 1023.1 0.0
26/06:30am 0.9 -1.0 0.8 99 0.0 CALM 0 0 0 0 1022.5 1022.7 0.0
26/06:16am 0.8 -1.1 0.7 99 0.0 CALM 0 0 0 0 1022.4 1022.6 0.0
26/06:04am 0.4 -1.5 0.3 99 0.0 CALM 0 0 0 0 1022.2 1022.4 0.0
26/06:00am 0.6 -1.3 0.5 99 0.0 CALM 0 0 0 0 1022.2 1022.4 0.0
26/05:56am 0.8 -1.1 0.7 99 0.0 CALM 0 0 0 0 1022.2 1022.4 0.0
26/05:30am 0.3 -1.7 0.2 99 0.0 CALM 0 0 0 0 1021.8 1022.0 0.0
26/05:00am 1.2 -0.6 1.1 99 0.0 CALM 0 0 0 0 1021.6 1021.8 0.0
26/04:53am 0.7 -1.2 0.6 99 0.0 CALM 0 0 0 0 1021.6 1021.8 0.0
26/04:31am 1.1 -0.7 1.0 99 0.0 CALM 0 0 0 0 1021.4 1021.6 0.0
26/04:30am 1.1 -0.7 1.0 99 0.0 CALM 0 0 0 0 1021.4 1021.6 0.0
26/04:13am 0.6 -1.3 0.5 99 0.0 CALM 0 0 0 0 1021.2 1021.4 0.0
26/04:00am 0.7 -1.2 0.6 99 0.0 CALM 0 0 0 0 1021.2 1021.4 0.0
26/03:44am 0.1 -1.9 0.0 99 0.0 CALM 0 0 0 0 1021.2 1021.4 0.0
26/03:38am 2.6 1.0 2.5 99 0.0 CALM 0 0 0 0 1021.1 1021.3 0.0
26/03:30am 2.6 1.0 2.5 99 0.0 CALM 0 0 0 0 1021.3 1021.5 0.0
26/03:10am 1.8 -0.3 1.7 99 0.0 SSW 2 6 1 3 1021.3 1021.5 0.0
26/03:00am 3.2 0.6 3.1 99 0.0 SSW 6 6 3 3 1021.2 1021.4 0.0
26/02:36am 2.1 0.0 2.0 99 0.0 WSW 2 6 1 3 1021.3 1021.5 0.0
26/02:30am 2.9 0.6 2.8 99 0.0 WSW 4 7 2 4 1021.2 1021.4 0.0
26/02:00am 2.9 1.4 2.8 99 0.0 CALM 0 0 0 0 1021.0 1021.2 0.0
26/01:30am 2.5 0.9 2.4 99 0.0 CALM 0 0 0 0 1020.8 1021.0 0.0
26/01:02am 3.3 1.7 2.7 96 0.2 CALM 0 0 0 0 1020.7 1020.9 0.0
26/01:00am 3.9 2.5 3.5 97 0.2 CALM 0 0 0 0 1020.7 1020.9 0.0
26/12:30am 5.7 4.7 5.6 99 0.0 CALM 0 0 0 0 1020.6 1020.8 0.0
26/12:00am 4.5 3.3 4.4 99 0.0 CALM 0 0 0 0 1021.0 1021.2 0.0
 
Date/Time
EST
Temp
°C
App
Temp
°C
Dew
Point
°C
Rel
Hum
%
Delta-T
°C
Wind Press
QNH
hPa
Press
MSL
hPa
Rain since
9am
mm
Dir  Spd
km/h
Gust
km/h
Spd
kts
Gust
kts
25/11:30pm 3.2 1.5 2.0 92 0.5 CALM 0 0 0 0 1020.9 1021.1 0.0
25/11:00pm 4.7 3.3 3.8 94 0.4 CALM 0 0 0 0 1020.9 1021.1 0.0
25/10:30pm 5.0 3.5 3.2 88 0.7 CALM 0 0 0 0 1020.7 1020.9 0.0
25/10:00pm 6.5 5.2 4.2 85 1.0 CALM 0 0 0 0 1020.5 1020.7 0.0
25/09:30pm 8.0 5.7 4.9 81 1.4 SSW 6 7 3 4 1020.2 1020.4 0.0
25/09:00pm 9.4 7.0 5.4 76 1.8 S 7 9 4 5 1020.1 1020.3 0.0
25/08:30pm 9.2 6.9 7.3 88 0.9 S 9 19 5 10 1020.0 1020.2 0.0
25/08:00pm 6.8 4.8 4.5 85 1.0 S 4 9 2 5 1019.9 1020.1 0.0
25/07:30pm 7.2 5.9 4.2 81 1.3 CALM 0 0 0 0 1019.6 1019.8 0.0
25/07:00pm 8.2 7.0 4.8 79 1.5 CALM 0 0 0 0 1019.3 1019.5 0.0
25/06:30pm 9.6 8.4 4.8 72 2.2 CALM 0 0 0 0 1018.8 1019.0 0.0
25/06:00pm 11.0 9.9 5.1 67 2.7 CALM 0 0 0 0 1018.4 1018.6 0.0
25/05:30pm 13.0 10.9 5.7 61 3.5 WNW 6 7 3 4 1018.3 1018.5 0.0
25/05:00pm 14.0 11.8 6.1 59 3.8 NW 7 9 4 5 1018.1 1018.3 0.0
25/04:30pm 15.0 11.6 5.8 54 4.4 NW 13 17 7 9 1018.0 1018.2 0.0
25/04:00pm 15.7 12.4 6.2 53 4.6 WNW 13 17 7 9 1017.7 1017.8 0.0
25/03:30pm 15.6 12.2 5.8 52 4.7 WNW 13 19 7 10 1017.8 1017.9 0.0
25/03:00pm 15.5 11.6 5.4 51 4.8 WNW 15 19 8 10 1017.7 1017.8 0.0
25/02:30pm 16.2 11.9 5.2 48 5.3 NW 17 22 9 12 1017.6 1017.7 0.0
25/02:00pm 16.2 11.3 4.9 47 5.4 NW 20 28 11 15 1017.6 1017.7 0.0
25/01:30pm 16.0 11.6 5.0 48 5.2 NNW 17 26 9 14 1017.9 1018.0 0.0
25/01:00pm 15.9 11.2 5.2 49 5.1 NNW 19 28 10 15 1018.1 1018.3 0.0
25/12:30pm 15.0 11.1 5.2 52 4.7 NNW 15 19 8 10 1018.5 1018.7 0.0
25/12:00pm 14.6 10.2 4.6 51 4.7 NNW 17 20 9 11 1018.9 1019.1 0.0
25/11:30am 14.1 10.4 4.7 53 4.4 NNW 13 17 7 9 1019.5 1019.7 0.0
25/11:00am 13.1 10.1 4.3 55 4.0 NNW 9 13 5 7 1019.9 1020.1 0.0
25/10:30am 12.7 9.3 4.2 56 3.9 N 11 15 6 8 1020.0 1020.2 0.0
25/10:00am 11.6 8.8 5.0 64 3.0 N 9 13 5 7 1020.1 1020.3 0.0
25/09:30am 9.2 7.5 6.1 81 1.4 NW 4 7 2 4 1020.2 1020.4 0.0
25/09:00am 5.4 4.2 4.8 96 0.3 CALM 0 0 0 0 1019.9 1020.1 0.0
25/08:30am 4.6 3.3 4.0 96 0.3 CALM 0 0 0 0 1019.7 1019.9 0.0
25/08:00am 3.4 1.7 1.9 90 0.6 CALM 0 0 0 0 1019.5 1019.7 0.0
25/07:30am 4.5 3.1 3.3 92 0.5 CALM 0 0 0 0 1019.3 1019.5 0.0
25/07:00am 4.0 2.0 2.5 90 0.6 NE 2 6 1 3 1019.1 1019.3 0.0
25/06:30am 4.3 1.4 2.8 90 0.6 E 7 9 4 5 1018.8 1019.0 0.0
25/06:00am 4.3 1.5 3.3 93 0.4 E 7 9 4 5 1018.7 1018.9 0.0
25/05:30am 4.2 1.4 3.0 92 0.5 ENE 7 9 4 5 1018.8 1019.0 0.0
25/05:00am 3.6 -0.2 2.0 89 0.6 ESE 11 13 6 7 1018.5 1018.7 0.0
25/04:30am 4.0 0.4 2.7 91 0.5 E 11 13 6 7 1018.6 1018.8 0.0
25/04:00am 4.9 1.3 3.1 88 0.7 ESE 11 13 6 7 1018.8 1019.0 0.0
25/03:30am 5.1 2.5 3.4 89 0.7 E 6 7 3 4 1018.9 1019.1 0.0
25/03:00am 4.4 1.7 2.4 87 0.8 N 6 11 3 6 1019.1 1019.3 0.0
25/02:30am 3.7 0.8 1.4 85 0.9 NNE 6 11 3 6 1019.0 1019.2 0.0
25/02:00am 3.4 1.4 2.4 93 0.4 NNE 2 7 1 4 1019.1 1019.3 0.0
25/01:30am 3.2 1.1 1.6 89 0.6 E 2 6 1 3 1019.1 1019.3 0.0
25/01:00am 4.1 1.3 2.9 92 0.5 NNE 7 11 4 6 1019.1 1019.3 0.0
25/12:30am 4.5 0.2 3.3 92 0.5 E 15 17 8 9 1019.1 1019.3 0.0
25/12:00am 4.2 0.2 2.7 90 0.6 ESE 13 17 7 9 1019.4 1019.6 0.0
 
Date/Time
EST
Temp
°C
App
Temp
°C
Dew
Point
°C
Rel
Hum
%
Delta-T
°C
Wind Press
QNH
hPa
Press
MSL
hPa
Rain since
9am
mm
Dir  Spd
km/h
Gust
km/h
Spd
kts
Gust
kts
24/11:30pm 4.7 3.1 2.6 86 0.9 CALM 0 0 0 0 1019.5 1019.7 0.0
24/11:00pm 4.2 2.4 1.2 81 1.2 CALM 0 0 0 0 1019.8 1020.0 0.0
24/10:30pm 5.2 3.6 2.2 81 1.2 CALM 0 0 0 0 1019.7 1019.9 0.0
24/10:00pm 8.2 4.8 4.2 76 1.8 S 11 15 6 8 1019.8 1020.0 0.0
24/09:30pm 7.7 4.4 4.3 79 1.5 S 11 13 6 7 1019.7 1019.9 0.0
24/09:00pm 6.0 3.7 2.8 80 1.3 W 4 6 2 3 1019.8 1020.0 0.0

Other Formats:

Comma delimited format used in spreadsheet applications
http://www.bom.gov.au/fwo/IDN60801/IDN60801.95704.axf

JavaScript Object Notation format (JSON) in row-major order
http://www.bom.gov.au/fwo/IDN60801/IDN60801.95704.json